Main page
METAR-TAF:

METAR-TAF

Airports :

Ostend–Bruges International Airport

Ostend, Belgium

latitude: 51-12N, longitude: 002-52E, elevation: 4 m

Current weather observation

The report was made 37 minutes ago, at 07:20 UTC
Wind 6 kt from the East/Northeast
Temperature -5°C
Humidity 79%
Pressure 1014 hPa
Visibility: 9000 m

METAR: EBOS 200720Z 07006KT 9000 NSC M05/M08 Q1014 NOSIG

Time: 08:57 (07:57 UTC)

Forecast

The report was made 2 hours and 57 minutes ago, at 05:00 UTC
Forecast valid from 20 at 06 UTC to 21 at 12 UTC
Wind 6 kt from the East/Northeast
Visibility 10 km or more
no clouds below 1500 m and no cumulonimbus
Probability 30% :
Temporary
from 21 at 04 UTC to 21 at 07 UTC
Visibility: 3000 m
mist, Shallow fog

TAF: EBOS 200500Z 2006/2112 07006KT CAVOK PROB30 TEMPO 2104/2107 3000 BR MIFG

Weather observations and forecasts of more than 4000 airports (METAR and TAF reports).

The available stations are represented by yellow and red dots on the map.

Hover mouse over dot to see the name of the station.

Then click to see weather observations and forecasts.

To change the map : click on the green buttons with a black cross to zoom in, on the green button with a dash to zoom out, or on the green arrows for adjacent maps.


METAR-TAF: